Time;durP1;ratioP1;P1;durP2;ratioP2;P2;SDS_P1;SDS_P2;PMS_P1;PMS_P2;Temp;Humidity;BMP_temperature;BMP_pressure;BME280_temperature;BME280_humidity;BME280_pressure;Samples;Min_cycle;Max_cycle;Signal;HPM_P1;HPM_P2
2023/05/26 00:01:50;;;;;;;8.68;6.80;;;;;;;12.74;100.00;96550.13;5120512;27;20054;-69
2023/05/26 00:04:16;;;;;;;7.40;6.70;;;;;;;12.76;100.00;96553.47;5122873;27;20050;-69
2023/05/26 00:06:46;;;;;;;11.50;6.82;;;;;;;12.76;100.00;96558.75;5123264;27;20482;-69
2023/05/26 00:09:12;;;;;;;7.35;6.72;;;;;;;12.74;100.00;96558.06;5129164;27;20019;-69
2023/05/26 00:11:38;;;;;;;7.13;6.40;;;;;;;12.73;100.00;96551.09;5128400;27;20022;-69
2023/05/26 00:14:04;;;;;;;7.57;6.90;;;;;;;12.72;100.00;96534.41;5127275;27;20123;-69
2023/05/26 00:16:29;;;;;;;7.03;6.32;;;;;;;12.71;100.00;96535.38;5120513;27;20480;-69
2023/05/26 00:18:55;;;;;;;7.93;6.65;;;;;;;12.70;100.00;96527.56;5135019;27;20095;-69
2023/05/26 00:21:20;;;;;;;6.53;6.03;;;;;;;12.67;100.00;96528.69;5121580;27;20023;-69
2023/05/26 00:23:46;;;;;;;7.28;6.57;;;;;;;12.65;100.00;96541.19;5118717;27;20026;-68
2023/05/26 00:26:11;;;;;;;7.93;7.05;;;;;;;12.56;100.00;96527.00;5125087;27;20075;-69
2023/05/26 00:28:38;;;;;;;8.75;7.85;;;;;;;12.53;100.00;96531.69;5123361;27;20019;-69
2023/05/26 00:31:03;;;;;;;11.40;6.72;;;;;;;12.49;100.00;96527.66;5121594;27;20031;-69
2023/05/26 00:33:28;;;;;;;9.98;8.02;;;;;;;12.39;100.00;96525.81;5113400;28;20035;-69
2023/05/26 00:35:54;;;;;;;7.97;7.35;;;;;;;12.39;100.00;96530.25;5129780;27;20022;-69
2023/05/26 00:38:19;;;;;;;9.00;7.93;;;;;;;12.39;100.00;96532.91;5123317;27;20022;-69
2023/05/26 00:40:45;;;;;;;8.38;7.50;;;;;;;12.36;100.00;96530.53;5117846;27;20516;-69
2023/05/26 00:43:10;;;;;;;8.85;7.88;;;;;;;12.34;100.00;96516.63;5116208;27;20046;-68
2023/05/26 00:45:36;;;;;;;9.00;7.15;;;;;;;12.35;100.00;96528.84;5124141;27;20134;-69
2023/05/26 00:48:02;;;;;;;12.63;6.95;;;;;;;12.34;100.00;96533.28;5123156;27;20102;-69
2023/05/26 00:50:29;;;;;;;7.78;7.22;;;;;;;12.37;100.00;96527.72;5123033;27;20460;-68
2023/05/26 00:52:55;;;;;;;7.10;6.60;;;;;;;12.43;100.00;96524.56;5116831;27;20092;-69
2023/05/26 00:55:21;;;;;;;8.50;7.72;;;;;;;12.45;100.00;96524.44;5127352;27;20080;-68
2023/05/26 00:57:47;;;;;;;7.60;6.95;;;;;;;12.45;100.00;96522.63;5122156;27;20023;-68
2023/05/26 01:00:13;;;;;;;7.95;7.25;;;;;;;12.44;100.00;96520.97;5123617;27;20521;-68
2023/05/26 01:02:39;;;;;;;7.45;6.78;;;;;;;12.45;100.00;96514.72;5128217;27;20031;-69
2023/05/26 01:05:06;;;;;;;7.82;6.70;;;;;;;12.46;100.00;96515.53;5126967;27;20061;-69
2023/05/26 01:07:32;;;;;;;7.47;6.68;;;;;;;12.50;100.00;96518.75;5122976;27;20023;-69
2023/05/26 01:09:58;;;;;;;7.47;6.93;;;;;;;12.51;100.00;96523.06;5128137;27;20107;-68
2023/05/26 01:12:33;;;;;;;7.65;6.80;;;;;;;12.51;100.00;96526.56;5127025;27;20027;-68
2023/05/26 01:15:09;;;;;;;7.43;6.80;;;;;;;12.52;100.00;96520.31;5127612;27;20022;-68
2023/05/26 01:17:39;;;;;;;8.45;6.70;;;;;;;12.49;100.00;96531.16;5127386;27;20463;-68
2023/05/26 01:20:18;;;;;;;8.18;6.65;;;;;;;12.44;100.00;96525.41;5118765;27;20126;-69
2023/05/26 01:22:59;;;;;;;7.07;6.43;;;;;;;12.38;100.00;96512.75;5117675;27;20038;-69
2023/05/26 01:25:44;;;;;;;9.10;6.45;;;;;;;12.31;100.00;96523.84;5116450;27;20502;-69
2023/05/26 01:28:27;;;;;;;7.30;6.60;;;;;;;12.28;100.00;96518.81;5120763;27;20058;-69
2023/05/26 01:30:53;;;;;;;7.72;6.97;;;;;;;12.29;100.00;96517.84;5122719;27;20114;-69
2023/05/26 01:33:19;;;;;;;9.13;7.13;;;;;;;12.32;100.00;96519.38;5116294;27;20047;-68
2023/05/26 01:35:44;;;;;;;8.13;6.32;;;;;;;12.29;100.00;96520.50;5128264;27;20106;-69
2023/05/26 01:38:11;;;;;;;9.27;6.95;;;;;;;12.31;100.00;96523.00;5122358;27;20051;-69
2023/05/26 01:40:39;;;;;;;7.47;6.70;;;;;;;12.31;100.00;96525.63;5126585;27;20090;-69
2023/05/26 01:43:19;;;;;;;7.78;7.03;;;;;;;12.25;100.00;96520.88;5130934;27;20088;-69
2023/05/26 01:46:10;;;;;;;12.13;7.28;;;;;;;12.17;100.00;96521.53;5123338;27;20051;-69
2023/05/26 01:48:40;;;;;;;7.38;6.68;;;;;;;12.17;100.00;96510.97;5120293;27;20027;-68
2023/05/26 01:51:06;;;;;;;8.93;7.32;;;;;;;12.16;100.00;96525.16;5120447;27;20026;-69
2023/05/26 01:53:35;;;;;;;7.72;6.80;;;;;;;12.15;100.00;96523.47;5122051;27;20046;-69
2023/05/26 01:56:00;;;;;;;7.72;7.03;;;;;;;12.08;100.00;96527.63;5122753;27;20527;-69
2023/05/26 01:58:28;;;;;;;7.60;6.97;;;;;;;12.06;100.00;96529.56;5123123;27;20015;-69
2023/05/26 02:00:53;;;;;;;8.10;7.30;;;;;;;12.03;100.00;96531.47;5117650;27;20055;-69
2023/05/26 02:03:20;;;;;;;8.65;7.07;;;;;;;11.98;100.00;96528.34;5124716;27;20034;-69
2023/05/26 02:05:45;;;;;;;8.48;7.28;;;;;;;11.94;100.00;96534.03;5114459;28;20080;-68
2023/05/26 02:08:11;;;;;;;7.43;6.82;;;;;;;11.86;100.00;96539.97;5117016;28;20091;-69
2023/05/26 02:10:37;;;;;;;8.55;7.30;;;;;;;11.84;100.00;96541.88;5124337;27;20097;-68
2023/05/26 02:13:03;;;;;;;9.48;7.32;;;;;;;11.79;100.00;96530.88;5124646;27;20578;-68
2023/05/26 02:15:29;;;;;;;7.95;7.15;;;;;;;11.74;100.00;96531.28;5118441;28;20027;-69
2023/05/26 02:17:57;;;;;;;7.57;6.82;;;;;;;11.75;100.00;96531.13;5123654;27;20495;-69
2023/05/26 02:20:23;;;;;;;7.35;6.65;;;;;;;11.73;100.00;96513.78;5130086;27;20027;-69
2023/05/26 02:22:48;;;;;;;8.00;7.30;;;;;;;11.70;100.00;96516.66;5128088;28;20030;-68
2023/05/26 02:25:14;;;;;;;9.38;7.35;;;;;;;11.67;100.00;96520.41;5122124;27;20019;-69
2023/05/26 02:27:39;;;;;;;7.53;6.72;;;;;;;11.63;100.00;96520.78;5120804;28;20012;-69
2023/05/26 02:30:06;;;;;;;9.38;6.93;;;;;;;11.56;100.00;96516.00;5119993;28;20184;-69
2023/05/26 02:32:31;;;;;;;8.70;7.78;;;;;;;11.51;100.00;96518.22;5129895;28;20019;-68
2023/05/26 02:34:58;;;;;;;9.23;8.07;;;;;;;11.49;100.00;96516.66;5124218;27;20560;-68
2023/05/26 02:37:26;;;;;;;8.32;7.53;;;;;;;11.46;100.00;96518.59;5126963;27;20046;-69
2023/05/26 02:39:52;;;;;;;10.32;7.45;;;;;;;11.49;100.00;96511.38;5127671;28;20617;-69
2023/05/26 02:42:17;;;;;;;9.93;7.60;;;;;;;11.49;100.00;96517.47;5115991;28;20038;-69
2023/05/26 02:44:43;;;;;;;8.02;7.32;;;;;;;11.50;100.00;96518.31;5120196;28;20022;-69
2023/05/26 02:47:08;;;;;;;9.38;7.25;;;;;;;11.46;100.00;96508.03;5119631;28;20039;-68
2023/05/26 02:49:34;;;;;;;8.00;7.18;;;;;;;11.41;100.00;96507.59;5120315;28;20408;-69
2023/05/26 02:51:59;;;;;;;9.18;8.30;;;;;;;11.40;100.00;96508.56;5123701;27;20023;-69
2023/05/26 02:54:25;;;;;;;8.82;7.97;;;;;;;11.38;100.00;96510.44;5122233;27;20131;-68
2023/05/26 02:56:50;;;;;;;8.70;7.90;;;;;;;11.34;100.00;96503.75;5124212;27;20468;-68
2023/05/26 02:59:16;;;;;;;8.32;7.53;;;;;;;11.32;100.00;96509.19;5123016;27;20012;-68
2023/05/26 03:01:41;;;;;;;8.80;7.90;;;;;;;11.34;100.00;96506.41;5128419;27;20028;-69
2023/05/26 03:04:06;;;;;;;8.85;8.05;;;;;;;11.34;100.00;96513.50;5121450;27;20027;-69
2023/05/26 03:06:34;;;;;;;9.02;8.30;;;;;;;11.31;100.00;96515.41;5130284;27;20031;-70
2023/05/26 03:09:00;;;;;;;8.15;7.10;;;;;;;11.31;100.00;96507.50;5120256;27;20065;-68
2023/05/26 03:11:25;;;;;;;11.25;7.75;;;;;;;11.30;100.00;96512.88;5103115;27;20110;-69
2023/05/26 03:13:51;;;;;;;8.50;7.63;;;;;;;11.22;100.00;96517.97;5132427;27;20064;-69
2023/05/26 03:16:16;;;;;;;8.15;7.50;;;;;;;11.18;100.00;96514.75;5134232;27;20440;-69
2023/05/26 03:18:42;;;;;;;9.35;8.55;;;;;;;11.17;100.00;96521.81;5120812;27;20031;-69
2023/05/26 03:21:09;;;;;;;9.15;8.27;;;;;;;11.15;100.00;96526.34;5117009;27;20028;-69
2023/05/26 03:23:34;;;;;;;9.50;8.60;;;;;;;11.11;100.00;96521.47;5117017;27;20083;-68
2023/05/26 03:26:00;;;;;;;9.52;7.75;;;;;;;11.06;100.00;96524.47;5130069;27;20605;-69
2023/05/26 03:28:26;;;;;;;9.25;7.28;;;;;;;11.07;100.00;96527.97;5131130;27;20054;-69
2023/05/26 03:30:52;;;;;;;11.73;7.88;;;;;;;10.98;100.00;96524.28;5121528;27;20514;-69
2023/05/26 03:33:17;;;;;;;9.48;8.60;;;;;;;10.94;100.00;96530.72;5128097;27;20091;-69
2023/05/26 03:35:43;;;;;;;9.13;8.32;;;;;;;10.89;100.00;96521.41;5125616;27;20087;-69
2023/05/26 03:38:09;;;;;;;8.63;7.93;;;;;;;10.84;100.00;96518.31;5137616;27;20027;-69
2023/05/26 03:40:34;;;;;;;10.25;8.95;;;;;;;10.81;100.00;96515.06;5124133;27;20027;-69
2023/05/26 03:43:01;;;;;;;11.68;8.35;;;;;;;10.79;100.00;96509.94;5132262;27;20030;-68
2023/05/26 03:45:27;;;;;;;9.57;8.07;;;;;;;10.79;100.00;96509.09;5130525;27;20098;-69
2023/05/26 03:47:52;;;;;;;9.82;8.35;;;;;;;10.79;100.00;96511.72;5131271;27;20092;-68
2023/05/26 03:50:18;;;;;;;9.25;8.25;;;;;;;10.80;100.00;96516.88;5119470;27;20072;-69
2023/05/26 03:52:43;;;;;;;9.05;8.15;;;;;;;10.82;100.00;96514.97;5129047;27;20023;-69
2023/05/26 03:55:10;;;;;;;8.95;8.05;;;;;;;10.82;100.00;96514.97;5121129;27;20042;-69
2023/05/26 03:57:37;;;;;;;8.98;8.13;;;;;;;10.81;100.00;96512.44;5116189;27;20104;-69
2023/05/26 04:00:04;;;;;;;12.82;8.55;;;;;;;10.79;100.00;96515.22;5116791;27;20022;-69
2023/05/26 04:02:29;;;;;;;11.63;8.75;;;;;;;10.79;100.00;96514.38;5133575;27;20673;-68
2023/05/26 04:04:55;;;;;;;8.82;8.13;;;;;;;10.77;100.00;96509.22;5121643;27;20027;-69
2023/05/26 04:07:21;;;;;;;9.70;8.70;;;;;;;10.71;100.00;96512.34;5121076;27;20028;-68
2023/05/26 04:09:46;;;;;;;12.40;8.88;;;;;;;10.69;100.00;96512.47;5130349;27;20696;-69
2023/05/26 04:12:11;;;;;;;10.13;9.02;;;;;;;10.68;100.00;96507.31;5128297;27;20019;-69
2023/05/26 04:14:37;;;;;;;12.10;8.85;;;;;;;10.67;100.00;96510.91;5135378;27;20587;-69
2023/05/26 04:17:02;;;;;;;10.68;9.48;;;;;;;10.65;100.00;96508.41;5120140;27;20041;-70
2023/05/26 04:19:28;;;;;;;10.85;9.70;;;;;;;10.66;100.00;96514.50;5117412;27;20019;-69
2023/05/26 04:21:53;;;;;;;9.48;8.55;;;;;;;10.64;100.00;96512.00;5117254;27;20028;-69
2023/05/26 04:24:18;;;;;;;9.52;8.60;;;;;;;10.63;100.00;96510.34;5118759;27;20032;-69
2023/05/26 04:26:44;;;;;;;9.63;8.32;;;;;;;10.63;100.00;96514.75;5131147;27;20513;-69
2023/05/26 04:29:09;;;;;;;10.63;8.27;;;;;;;10.62;100.00;96507.81;5128972;27;20026;-68
2023/05/26 04:31:40;;;;;;;10.15;9.15;;;;;;;10.65;100.00;96511.06;5119320;27;20045;-69
2023/05/26 04:34:07;;;;;;;9.82;8.85;;;;;;;10.67;100.00;96516.19;5117417;28;20028;-69
2023/05/26 04:36:32;;;;;;;10.30;9.30;;;;;;;10.66;100.00;96515.34;5129770;27;20023;-69
2023/05/26 04:38:58;;;;;;;9.63;8.60;;;;;;;10.66;100.00;96514.50;5124426;27;20072;-69
2023/05/26 04:41:24;;;;;;;9.82;8.77;;;;;;;10.64;100.00;96516.44;5130608;27;20027;-68
2023/05/26 04:43:50;;;;;;;9.13;8.32;;;;;;;10.64;100.00;96527.81;5100415;27;20549;-69
2023/05/26 04:46:16;;;;;;;9.80;8.77;;;;;;;10.66;100.00;96519.78;5127100;27;20125;-69
2023/05/26 04:48:42;;;;;;;11.55;8.45;;;;;;;10.72;100.00;96524.53;5118758;27;20023;-69
2023/05/26 04:51:07;;;;;;;17.13;14.93;;;;;;;10.77;100.00;96527.66;5130411;27;20016;-70
2023/05/26 04:53:33;;;;;;;10.90;9.80;;;;;;;10.80;100.00;96527.41;5123336;27;20031;-70
2023/05/26 04:56:01;;;;;;;11.00;9.88;;;;;;;10.80;100.00;96522.16;5116984;28;20024;-70
2023/05/26 04:58:26;;;;;;;12.45;10.35;;;;;;;10.81;100.00;96523.81;5122028;27;20108;-70
2023/05/26 05:00:53;;;;;;;11.90;9.27;;;;;;;10.89;100.00;96533.75;5121097;27;20026;-70
2023/05/26 05:03:20;;;;;;;10.80;9.35;;;;;;;10.94;100.00;96533.34;5121805;27;20032;-70
2023/05/26 05:05:46;;;;;;;10.30;9.30;;;;;;;11.00;100.00;96530.25;5125670;27;20391;-70
2023/05/26 05:08:12;;;;;;;11.27;9.63;;;;;;;11.04;100.00;96529.84;5126583;27;20030;-70
2023/05/26 05:10:37;;;;;;;10.88;9.88;;;;;;;11.11;100.00;96532.03;5113881;28;20085;-70
2023/05/26 05:13:03;;;;;;;10.13;8.90;;;;;;;11.17;100.00;96537.63;5122495;27;20031;-70
2023/05/26 05:15:28;;;;;;;9.15;8.20;;;;;;;11.28;100.00;96542.03;5118023;27;20038;-71
2023/05/26 05:17:54;;;;;;;9.95;9.10;;;;;;;11.38;100.00;96547.34;5121790;27;20566;-70
2023/05/26 05:20:22;;;;;;;10.15;9.23;;;;;;;11.50;100.00;96545.53;5127972;27;20219;-70
2023/05/26 05:22:48;;;;;;;11.18;9.13;;;;;;;11.61;100.00;96548.09;5119243;27;20094;-70
2023/05/26 05:25:14;;;;;;;11.35;9.75;;;;;;;11.72;100.00;96543.75;5131429;27;20042;-70
2023/05/26 05:27:39;;;;;;;12.20;10.27;;;;;;;11.79;100.00;96557.25;5123092;27;20024;-70
2023/05/26 05:30:05;;;;;;;11.15;9.93;;;;;;;11.85;100.00;96554.13;5134105;27;20026;-70
2023/05/26 05:32:31;;;;;;;13.32;11.88;;;;;;;11.97;100.00;96555.72;5106327;28;20031;-70
2023/05/26 05:34:57;;;;;;;19.17;16.50;;;;;;;12.10;100.00;96557.34;5120416;27;20084;-71
2023/05/26 05:37:22;;;;;;;15.80;14.20;;;;;;;12.25;100.00;96548.09;5128549;27;20020;-70
2023/05/26 05:39:48;;;;;;;11.60;10.50;;;;;;;12.39;100.00;96551.38;5116758;28;20023;-70
2023/05/26 05:42:13;;;;;;;10.50;8.93;;;;;;;12.54;100.00;96544.78;5120472;27;20087;-70
2023/05/26 05:44:39;;;;;;;13.45;8.90;;;;;;;12.64;100.00;96551.88;5119678;27;20081;-70
2023/05/26 05:47:05;;;;;;;9.27;8.35;;;;;;;12.71;100.00;96553.00;5128133;27;20052;-70
2023/05/26 05:49:31;;;;;;;7.97;7.28;;;;;;;12.85;100.00;96543.91;5125118;27;20030;-71
2023/05/26 05:51:56;;;;;;;8.23;6.72;;;;;;;12.93;100.00;96548.47;5123587;27;20102;-70
2023/05/26 05:54:22;;;;;;;7.82;7.03;;;;;;;13.02;100.00;96545.03;5117937;27;20023;-71
2023/05/26 05:56:47;;;;;;;8.18;6.10;;;;;;;13.13;100.00;96544.91;5117577;27;20027;-70
2023/05/26 05:59:12;;;;;;;7.95;6.72;;;;;;;13.25;100.00;96545.63;5117123;28;20018;-71
2023/05/26 06:01:38;;;;;;;9.07;6.13;;;;;;;13.30;100.00;96538.13;5126195;27;20038;-70
2023/05/26 06:04:03;;;;;;;7.72;6.95;;;;;;;13.37;100.00;96541.03;5123623;27;20031;-71
2023/05/26 06:06:29;;;;;;;6.80;6.20;;;;;;;13.48;100.00;96542.75;5118869;27;20055;-71
2023/05/26 06:08:54;;;;;;;10.27;5.95;;;;;;;13.53;100.00;96539.69;5121412;27;20031;-68
2023/05/26 06:11:21;;;;;;;8.38;6.65;;;;;;;13.56;100.00;96534.09;5112738;27;20027;-67
2023/05/26 06:13:46;;;;;;;6.55;6.03;;;;;;;13.61;100.00;96532.72;5126630;27;20027;-67
2023/05/26 06:16:12;;;;;;;10.18;6.10;;;;;;;13.78;100.00;96534.78;5118940;27;20502;-69
2023/05/26 06:18:37;;;;;;;6.30;5.70;;;;;;;13.93;100.00;96538.66;5119974;27;20085;-68
2023/05/26 06:21:03;;;;;;;9.23;6.90;;;;;;;14.11;100.00;96537.94;5122130;27;20037;-68
2023/05/26 06:23:29;;;;;;;9.32;5.75;;;;;;;14.22;100.00;96527.16;5120593;27;20047;-69
2023/05/26 06:25:54;;;;;;;6.60;5.93;;;;;;;14.51;100.00;96526.25;5128001;28;20026;-68
2023/05/26 06:28:19;;;;;;;9.00;6.07;;;;;;;14.68;100.00;96523.78;5121919;27;20031;-69
2023/05/26 06:30:45;;;;;;;6.63;5.70;;;;;;;14.82;100.00;96530.44;5129115;27;20031;-69
2023/05/26 06:33:10;;;;;;;12.38;5.25;;;;;;;15.02;100.00;96525.84;5131022;27;20024;-69
2023/05/26 06:35:36;;;;;;;6.13;5.28;;;;;;;15.17;100.00;96519.06;5125230;27;20065;-69
2023/05/26 06:38:01;;;;;;;5.93;5.00;;;;;;;15.37;100.00;96526.03;5125586;27;20032;-71
2023/05/26 06:40:27;;;;;;;6.80;5.10;;;;;;;15.54;100.00;96525.19;5122424;27;20047;-70
2023/05/26 06:42:52;;;;;;;5.28;4.78;;;;;;;15.82;100.00;96517.13;5123910;27;20027;-70
2023/05/26 06:45:17;;;;;;;8.02;5.22;;;;;;;16.17;100.00;96510.09;5125825;27;20023;-69
2023/05/26 06:47:43;;;;;;;7.32;6.63;;;;;;;16.39;100.00;96505.22;5124234;27;20019;-70
2023/05/26 06:50:09;;;;;;;12.85;9.40;;;;;;;16.83;100.00;96506.06;5119970;27;20063;-70
2023/05/26 06:52:34;;;;;;;13.05;11.63;;;;;;;17.10;100.00;96490.88;5120316;27;20035;-70
2023/05/26 06:55:00;;;;;;;13.50;10.05;;;;;;;17.44;100.00;96490.75;5126066;27;20536;-71
2023/05/26 06:57:25;;;;;;;20.52;18.20;;;;;;;17.67;100.00;96481.25;5125270;27;20093;-70
2023/05/26 06:59:51;;;;;;;17.00;15.35;;;;;;;17.84;100.00;96479.41;5120352;27;20059;-70
2023/05/26 07:02:16;;;;;;;17.13;15.32;;;;;;;17.96;100.00;96469.25;5131871;27;20099;-69
2023/05/26 07:04:43;;;;;;;11.65;10.55;;;;;;;18.04;100.00;96467.44;5118966;28;20134;-70
2023/05/26 07:07:09;;;;;;;14.88;13.35;;;;;;;18.52;100.00;96461.28;5122661;27;20042;-70
2023/05/26 07:09:34;;;;;;;18.30;15.77;;;;;;;18.92;100.00;96463.91;5119952;27;20119;-70
2023/05/26 07:12:00;;;;;;;15.45;11.50;;;;;;;19.12;100.00;96461.66;5135474;27;20016;-69
2023/05/26 07:14:25;;;;;;;10.70;6.88;;;;;;;19.28;100.00;96454.53;5128048;27;20027;-70
2023/05/26 07:16:51;;;;;;;12.00;10.80;;;;;;;19.64;100.00;96448.56;5124475;27;20027;-71
2023/05/26 07:19:16;;;;;;;10.73;7.35;;;;;;;20.05;100.00;96436.66;5127711;27;20472;-71
2023/05/26 07:21:44;;;;;;;5.82;5.03;;;;;;;20.08;100.00;96428.28;5130277;27;20452;-70
2023/05/26 07:24:10;;;;;;;4.53;4.13;;;;;;;20.38;100.00;96427.44;5117059;28;20031;-71
2023/05/26 07:26:35;;;;;;;5.28;4.78;;;;;;;20.13;100.00;96423.22;5127566;27;20030;-71
2023/05/26 07:29:01;;;;;;;5.88;4.75;;;;;;;20.07;100.00;96431.16;5128392;27;20156;-71
2023/05/26 07:31:26;;;;;;;7.55;5.45;;;;;;;20.15;100.00;96433.72;5116594;28;20023;-70
2023/05/26 07:33:51;;;;;;;8.10;5.30;;;;;;;20.20;100.00;96431.31;5127254;27;20030;-71
2023/05/26 07:36:17;;;;;;;8.95;6.00;;;;;;;20.67;100.00;96437.28;5131640;27;20026;-71
2023/05/26 07:38:42;;;;;;;8.70;6.53;;;;;;;20.99;100.00;96423.66;5120263;27;20080;-71
2023/05/26 07:41:08;;;;;;;7.07;6.28;;;;;;;21.14;100.00;96431.63;5125131;27;20080;-72
2023/05/26 07:43:34;;;;;;;8.70;5.70;;;;;;;21.39;100.00;96429.41;5120841;27;20388;-72
2023/05/26 07:45:59;;;;;;;6.70;5.95;;;;;;;21.48;100.00;96416.69;5119801;27;20052;-73
2023/05/26 07:48:25;;;;;;;5.88;5.25;;;;;;;21.64;100.00;96422.78;5121968;27;20027;-72
2023/05/26 07:50:51;;;;;;;7.95;4.97;;;;;;;21.49;100.00;96423.72;5124913;27;20024;-72
2023/05/26 07:53:16;;;;;;;5.90;5.30;;;;;;;21.60;100.00;96422.38;5124447;27;20582;-72
2023/05/26 07:55:49;;;;;;;6.90;5.03;;;;;;;22.23;100.00;96410.84;5121815;27;20468;-72
2023/05/26 07:58:14;;;;;;;6.10;5.60;;;;;;;21.64;100.00;96402.19;5126939;27;20027;-71
2023/05/26 08:00:40;;;;;;;6.75;5.82;;;;;;;21.80;100.00;96408.31;5129012;27;20067;-70
2023/05/26 08:03:05;;;;;;;8.43;5.68;;;;;;;21.95;100.00;96395.63;5117791;27;20023;-72
2023/05/26 08:05:31;;;;;;;7.85;5.03;;;;;;;22.44;100.00;96393.81;5118989;27;20023;-71
2023/05/26 08:07:57;;;;;;;6.03;5.43;;;;;;;22.55;100.00;96384.38;5128633;27;20019;-71
2023/05/26 08:10:23;;;;;;;6.60;5.47;;;;;;;22.44;100.00;96382.28;5120206;27;20165;-71
2023/05/26 08:12:48;;;;;;;7.93;4.88;;;;;;;22.41;100.00;96379.97;5134804;27;20080;-72
2023/05/26 08:15:15;;;;;;;6.05;4.78;;;;;;;22.55;100.00;96376.34;5125731;27;20023;-72
2023/05/26 08:17:41;;;;;;;8.52;4.90;;;;;;;22.53;100.00;96356.94;5118812;27;20114;-70
2023/05/26 08:20:08;;;;;;;11.07;5.47;;;;;;;22.75;100.00;96360.28;5120814;27;20606;-71
2023/05/26 08:22:34;;;;;;;5.38;4.88;;;;;;;21.90;100.00;96365.91;5117833;27;20047;-70
2023/05/26 08:25:00;;;;;;;6.60;5.05;;;;;;;21.62;100.00;96374.78;5121677;27;20027;-72
2023/05/26 08:27:26;;;;;;;7.70;5.78;;;;;;;21.96;100.00;96381.19;5123866;27;20029;-71
2023/05/26 08:29:52;;;;;;;6.40;5.55;;;;;;;22.04;100.00;96372.16;5107624;27;20020;-70
2023/05/26 08:32:17;;;;;;;6.82;5.10;;;;;;;21.51;100.00;96370.78;5120973;27;20041;-70
2023/05/26 08:34:44;;;;;;;9.30;5.20;;;;;;;21.85;100.00;96369.16;5122123;27;20426;-70
2023/05/26 08:37:11;;;;;;;5.75;4.53;;;;;;;22.46;100.00;96350.72;5134807;27;20023;-70
2023/05/26 08:39:40;;;;;;;6.03;4.80;;;;;;;22.30;100.00;96355.38;5121647;27;20023;-70
2023/05/26 08:42:08;;;;;;;6.47;4.45;;;;;;;22.77;100.00;96354.72;5121982;27;20026;-70
2023/05/26 08:44:35;;;;;;;10.15;4.78;;;;;;;23.14;100.00;96341.78;5125400;27;20038;-70
2023/05/26 08:47:03;;;;;;;5.50;4.80;;;;;;;23.64;100.00;96326.25;5126945;27;20091;-70
2023/05/26 08:49:38;;;;;;;6.47;4.85;;;;;;;23.90;100.00;96314.63;5129478;27;20023;-70
2023/05/26 08:52:10;;;;;;;8.00;4.97;;;;;;;23.95;100.00;96296.00;5117629;27;20027;-70
2023/05/26 08:54:37;;;;;;;4.88;4.38;;;;;;;23.57;100.00;96299.41;5131433;27;20050;-70
2023/05/26 08:57:04;;;;;;;5.47;4.32;;;;;;;23.84;100.00;96296.66;5115886;28;20308;-70
2023/05/26 08:59:31;;;;;;;4.55;3.55;;;;;;;23.93;100.00;96292.69;5115807;27;20024;-70
2023/05/26 09:01:57;;;;;;;7.18;4.32;;;;;;;23.94;100.00;96291.66;5123971;27;20035;-70
2023/05/26 09:04:23;;;;;;;3.83;3.53;;;;;;;23.85;100.00;96298.31;5121179;27;20384;-70
2023/05/26 09:06:48;;;;;;;6.47;4.38;;;;;;;23.64;100.00;96292.16;5116510;27;20463;-70
2023/05/26 09:09:16;;;;;;;5.00;3.90;;;;;;;23.92;100.00;96301.78;5119597;27;20050;-70
2023/05/26 09:11:42;;;;;;;5.80;4.00;;;;;;;24.15;100.00;96295.13;5127668;27;20024;-71
2023/05/26 09:14:07;;;;;;;5.03;4.15;;;;;;;24.49;100.00;96279.66;5123498;27;20037;-71
2023/05/26 09:16:33;;;;;;;5.88;3.95;;;;;;;24.27;100.00;96282.66;5125435;27;20026;-70
2023/05/26 09:19:01;;;;;;;4.05;3.33;;;;;;;24.55;100.00;96286.84;5116308;27;20047;-70
2023/05/26 09:21:27;;;;;;;4.40;4.00;;;;;;;24.60;100.00;96276.25;5128069;27;20446;-70
2023/05/26 09:23:55;;;;;;;5.45;3.70;;;;;;;24.55;100.00;96259.94;5125484;27;20051;-70
2023/05/26 09:26:27;;;;;;;5.38;3.85;;;;;;;24.96;100.00;96257.81;5130068;27;20026;-70
2023/05/26 09:28:52;;;;;;;7.00;4.07;;;;;;;24.73;100.00;96253.00;5126854;27;20676;-71
2023/05/26 09:31:18;;;;;;;7.80;3.90;;;;;;;24.75;100.00;96249.06;5113382;28;20043;-71
2023/05/26 09:33:47;;;;;;;5.85;4.00;;;;;;;24.95;100.00;96245.38;5125416;27;20024;-71
2023/05/26 09:36:15;;;;;;;8.23;3.83;;;;;;;24.42;100.00;96238.47;5123696;27;20023;-71
2023/05/26 09:38:43;;;;;;;3.95;3.55;;;;;;;24.87;100.00;96227.66;5115630;27;20027;-71
2023/05/26 09:41:09;;;;;;;5.30;4.28;;;;;;;24.63;100.00;96226.56;5125041;27;20020;-71
2023/05/26 09:43:36;;;;;;;4.35;3.83;;;;;;;25.06;100.00;96224.97;5122349;27;20029;-72
2023/05/26 09:46:07;;;;;;;5.25;3.95;;;;;;;24.95;100.00;96218.44;5125096;27;20036;-72
2023/05/26 09:48:34;;;;;;;5.95;4.18;;;;;;;24.69;100.00;96220.28;5115825;27;20127;-73
2023/05/26 09:50:59;;;;;;;5.70;4.05;;;;;;;24.59;100.00;96230.72;5126017;27;20016;-72
2023/05/26 09:53:26;;;;;;;6.05;3.95;;;;;;;24.55;100.00;96219.56;5134921;27;20037;-73
2023/05/26 09:55:55;;;;;;;7.32;4.10;;;;;;;24.65;100.00;96218.25;5122162;27;20445;-73
2023/05/26 09:58:22;;;;;;;6.45;4.30;;;;;;;24.87;100.00;96221.44;5126907;27;20661;-73
2023/05/26 10:00:48;;;;;;;5.80;3.65;;;;;;;25.02;100.00;96223.78;5122880;27;20500;-73
2023/05/26 10:03:14;;;;;;;5.25;3.90;;;;;;;25.41;100.00;96207.44;5120779;27;20020;-73
2023/05/26 10:05:46;;;;;;;6.07;4.10;;;;;;;25.49;100.00;96199.09;5119196;27;20454;-73
2023/05/26 10:08:16;;;;;;;7.75;3.85;;;;;;;25.66;100.00;96190.44;5125404;27;20126;-73
2023/05/26 10:10:43;;;;;;;5.40;3.75;;;;;;;24.97;100.00;96191.31;5126134;27;20305;-73
2023/05/26 10:13:10;;;;;;;4.88;3.67;;;;;;;25.42;100.00;96198.31;5119075;27;20391;-74
2023/05/26 10:15:35;;;;;;;4.13;3.72;;;;;;;25.17;100.00;96189.25;5113269;28;20023;-73
2023/05/26 10:18:02;;;;;;;5.05;3.78;;;;;;;25.84;100.00;96197.66;5121916;27;20037;-71
2023/05/26 10:20:29;;;;;;;6.05;3.88;;;;;;;25.40;100.00;96181.53;5121415;27;20042;-72
2023/05/26 10:23:07;;;;;;;5.07;3.63;;;;;;;25.49;100.00;96185.63;5124031;27;20043;-72
2023/05/26 10:25:59;;;;;;;5.15;3.88;;;;;;;26.20;100.00;96179.78;5119779;28;20019;-73
2023/05/26 10:28:40;;;;;;;7.38;3.88;;;;;;;26.27;100.00;96158.91;5129727;27;20019;-72
2023/05/26 10:31:05;;;;;;;5.30;3.70;;;;;;;26.15;100.00;96158.84;5115427;28;20028;-72
2023/05/26 10:33:42;;;;;;;5.00;3.70;;;;;;;26.79;100.00;96135.06;5101815;28;20023;-71
2023/05/26 10:36:16;;;;;;;4.10;3.45;;;;;;;25.73;100.00;96140.75;5126246;27;20050;-71
2023/05/26 10:38:47;;;;;;;6.72;4.88;;;;;;;26.06;100.00;96132.44;5115464;28;20036;-71
2023/05/26 10:41:32;;;;;;;6.38;3.72;;;;;;;25.79;100.00;96141.72;5118753;28;20035;-73
2023/05/26 10:43:58;;;;;;;;;;;;;;;25.84;100.00;96152.63;5129603;28;20026;-73
2023/05/26 10:46:38;;;;;;;10.70;7.82;;;;;;;26.27;100.00;96148.13;5127054;27;19919;-73
2023/05/26 10:49:04;;;;;;;9.57;7.00;;;;;;;26.24;100.00;96131.56;5123219;28;20031;-72
2023/05/26 10:51:32;;;;;;;6.30;4.60;;;;;;;26.25;100.00;96135.91;5127525;27;20031;-72
2023/05/26 10:54:13;;;;;;;5.18;3.85;;;;;;;26.73;100.00;96123.31;5114740;28;20035;-74
2023/05/26 10:56:42;;;;;;;7.25;3.65;;;;;;;25.92;100.00;96148.78;5124379;28;20778;-75
2023/05/26 10:59:08;;;;;;;5.03;3.55;;;;;;;26.29;100.00;96127.13;5121482;28;20049;-75
2023/05/26 11:01:35;;;;;;;7.43;3.70;;;;;;;26.29;100.00;96124.44;5114595;28;20541;-75
2023/05/26 11:04:10;;;;;;;4.55;3.55;;;;;;;26.78;100.00;96115.31;5118022;27;20097;-74
2023/05/26 11:06:51;;;;;;;5.43;3.63;;;;;;;27.13;100.00;96087.50;5131839;28;20019;-74
2023/05/26 11:09:21;;;;;;;8.60;4.03;;;;;;;26.84;100.00;96102.75;5121232;28;20027;-74
2023/05/26 11:11:54;;;;;;;9.25;3.58;;;;;;;26.95;100.00;96103.84;5132429;27;20023;-71
2023/05/26 11:14:33;;;;;;;5.15;3.72;;;;;;;26.93;100.00;96087.84;5119499;27;20062;-74
2023/05/26 11:17:04;;;;;;;4.43;3.50;;;;;;;26.84;100.00;96092.75;5120690;27;20403;-73
2023/05/26 11:19:31;;;;;;;6.18;3.67;;;;;;;27.09;100.00;96082.78;5126112;27;20065;-73
2023/05/26 11:21:58;;;;;;;6.05;3.67;;;;;;;27.00;100.00;96069.66;5127052;27;20027;-73
2023/05/26 11:24:24;;;;;;;6.72;3.70;;;;;;;26.79;100.00;96073.75;5118626;27;20027;-74